Airfield :
LOGIN :

Register | Disclaimer

   EN    FR    IT 

 










Legend :    VFR   Marginal VFR   IFR   Intensive IFR   Very Intensive IFR
Visi :
Ceiling :
>= 8 km
>= 3000ft
5 to 8 km
1000 to 3000 ft
1500m to 5 km
500 to 1000 ft
800 to 1500m
200 to 500 ft
< 800m
< 200 ft
Symbols :   Thunderstorms  Fog  Heavy snow  Heavy precipitations  Wind > 20 kt
SIGMETs :     Misc.  Thunderstorms  Icing  Turbulence  Mountain Waves  Volcanic Ashes






- Airport Elevation : 640 ft
- IATA code : AOC


EDAC - Altenburg-Nobitz

CURRENT METAR :
  • 250720Z VRB02KT CAVOK 21/13 Q1018

EXPIRED METARs :
  • 250650Z VRB02KT CAVOK 21/14 Q1018
  • 250620Z VRB01KT CAVOK 18/13 Q1018
  • 250550Z AUTO VRB02KT 9999 // NCD 17/13 Q1018
  • 250520Z AUTO VRB01KT 9999 // NCD 15/13 Q1018
  • 250450Z AUTO 00000KT 9999 // NCD 15/12 Q1018
  • 250420Z AUTO VRB01KT 9999 // NCD 13/11 Q1018
  • 250350Z AUTO VRB01KT 9999 // NCD 12/11 Q1018
  • 250320Z AUTO VRB02KT 9999 // NCD 11/11 Q1018
  • 250250Z AUTO 17002KT 9999 // NCD 11/11 Q1018

TAF TAF EDAC
Valid from the 25 at 07:00 until the 25 at 15:00 UTC


250650Z 2507/2515 VRB02KT CAVOK
BECMG 2508/2510 06007KT



MET'MAP, your aeronautical weather chart ! - Copyright ORBIFLY December 2007 - Disclaimer

ORBIFLY MET'MAP TEAM :

Programming & Development : Alexandra Zaïnal
Original concept : Baudouin d'Aumeries
Technical & hardware support : Manuel Goepfert
Assistance : Marc-Olivier Méhu




SOURCES & CREDITS :

   NOAA